createdAt,value
2023-02-06T00:00:55.968Z,-1.77
2023-02-06T00:01:58.181Z,-1.77
2023-02-06T00:03:00.522Z,-1.80
2023-02-06T00:04:03.822Z,-1.83
2023-02-06T00:05:06.462Z,-1.86
2023-02-06T00:06:11.138Z,-1.81
2023-02-06T00:07:13.717Z,-1.76
2023-02-06T00:08:15.829Z,-1.83
2023-02-06T00:09:18.726Z,-1.78
2023-02-06T00:10:21.897Z,-1.80
2023-02-06T00:11:25.377Z,-1.77
2023-02-06T00:12:28.749Z,-1.78
2023-02-06T00:13:31.153Z,-1.79
2023-02-06T00:14:33.418Z,-1.78
2023-02-06T00:15:36.038Z,-1.89
2023-02-06T00:16:38.984Z,-1.85
2023-02-06T00:17:41.409Z,-1.85
2023-02-06T00:18:43.749Z,-2.13
2023-02-06T00:19:46.100Z,-2.09
2023-02-06T00:20:49.841Z,-2.05
2023-02-06T00:21:53.126Z,-1.96
2023-02-06T00:22:55.335Z,-1.90
2023-02-06T00:24:00.172Z,-1.89
2023-02-06T00:25:03.056Z,-1.88
2023-02-06T00:26:07.785Z,-1.93
2023-02-06T00:27:10.055Z,-1.91
2023-02-06T00:28:13.270Z,-1.91
2023-02-06T00:29:15.570Z,-1.89
2023-02-06T00:30:18.446Z,-1.84
2023-02-06T00:31:22.139Z,-1.85
2023-02-06T00:32:24.968Z,-1.83
2023-02-06T00:33:27.041Z,-1.85
2023-02-06T00:34:29.676Z,-1.86
2023-02-06T00:35:31.888Z,-1.85
2023-02-06T00:36:34.219Z,-1.89
2023-02-06T00:37:36.514Z,-1.86
2023-02-06T00:38:38.705Z,-1.88
2023-02-06T00:39:40.965Z,-1.84
2023-02-06T00:40:44.122Z,-1.86
2023-02-06T00:41:46.347Z,-1.89
2023-02-06T00:42:48.922Z,-1.87
2023-02-06T00:43:51.149Z,-1.86
2023-02-06T00:44:54.626Z,-1.83
2023-02-06T00:45:57.724Z,-1.82
2023-02-06T00:47:00.724Z,-1.92
2023-02-06T00:48:04.042Z,-1.89
2023-02-06T00:49:07.023Z,-1.89
2023-02-06T00:50:10.080Z,-1.90
2023-02-06T00:51:12.198Z,-1.90
2023-02-06T00:52:14.390Z,-1.87
2023-02-06T00:53:17.111Z,-1.78
2023-02-06T00:54:20.320Z,-1.97
2023-02-06T00:55:24.878Z,-1.97
2023-02-06T00:56:27.677Z,-1.81
2023-02-06T00:57:30.306Z,-1.61
2023-02-06T00:58:32.508Z,-1.40
2023-02-06T00:59:35.042Z,-1.38
2023-02-06T01:00:37.549Z,-1.58
2023-02-06T01:01:39.570Z,-1.50
2023-02-06T01:02:41.786Z,-1.33
2023-02-06T01:03:45.117Z,-1.27
2023-02-06T01:04:47.301Z,-1.14
2023-02-06T01:05:49.787Z,-1.22
2023-02-06T01:06:53.326Z,-1.20
2023-02-06T01:07:55.783Z,-1.03
2023-02-06T01:08:59.959Z,-1.00
2023-02-06T01:10:04.121Z,-1.09
2023-02-06T01:12:21.216Z,-0.92
2023-02-06T01:13:23.443Z,-1.11
2023-02-06T01:14:25.797Z,-1.16
2023-02-06T01:15:28.607Z,-1.07
2023-02-06T01:16:31.403Z,-1.18
2023-02-06T01:17:33.964Z,-1.15
2023-02-06T01:18:36.151Z,-1.39
2023-02-06T01:19:38.361Z,-1.43
2023-02-06T01:20:40.783Z,-1.41
2023-02-06T01:21:42.889Z,-1.41
2023-02-06T01:22:45.047Z,-1.46
2023-02-06T01:23:50.508Z,-1.46
2023-02-06T01:24:52.994Z,-1.27
2023-02-06T01:25:55.567Z,-1.22
2023-02-06T01:26:58.021Z,-1.22
2023-02-06T01:28:00.837Z,-1.26
2023-02-06T01:29:04.581Z,-1.14
2023-02-06T01:30:09.437Z,-1.18
2023-02-06T01:31:14.072Z,-1.18
2023-02-06T01:32:17.380Z,-1.10
2023-02-06T01:33:19.564Z,-1.21
2023-02-06T01:34:22.468Z,-1.22
2023-02-06T01:35:25.650Z,-1.20
2023-02-06T01:36:29.349Z,-1.09
2023-02-06T01:37:32.690Z,-1.11
2023-02-06T01:38:35.452Z,-1.12
2023-02-06T01:39:37.581Z,-1.34
2023-02-06T01:40:40.056Z,-1.38
2023-02-06T01:41:42.342Z,-1.33
2023-02-06T01:42:45.027Z,-1.32
2023-02-06T01:44:09.552Z,-1.32
2023-02-06T01:45:27.277Z,-1.50
2023-02-06T01:46:29.559Z,-1.47
2023-02-06T01:47:31.742Z,-1.61
2023-02-06T01:48:43.448Z,-1.52
2023-02-06T01:49:49.681Z,-1.52
2023-02-06T01:50:55.132Z,-1.41
2023-02-06T01:52:15.752Z,-1.42
2023-02-06T01:53:20.150Z,-1.42
2023-02-06T01:54:23.298Z,-1.49
2023-02-06T01:55:26.165Z,-1.56
2023-02-06T01:56:32.014Z,-1.70
2023-02-06T01:57:34.805Z,-1.78
2023-02-06T01:58:40.505Z,-1.81
2023-02-06T01:59:46.250Z,-1.81
2023-02-06T02:00:48.974Z,-1.85
2023-02-06T02:01:51.087Z,-1.85
2023-02-06T02:02:53.675Z,-1.89
2023-02-06T02:04:06.409Z,-1.92
2023-02-06T02:05:11.763Z,-1.93
2023-02-06T02:06:18.838Z,-1.98
2023-02-06T02:07:27.705Z,-1.98
2023-02-06T02:08:44.806Z,-2.00
2023-02-06T02:09:47.170Z,-2.19
2023-02-06T02:10:50.691Z,-2.27
2023-02-06T02:11:52.877Z,-2.36
2023-02-06T02:12:55.580Z,-2.34
2023-02-06T02:13:59.046Z,-2.36
2023-02-06T02:15:02.316Z,-2.36
2023-02-06T02:16:14.457Z,-2.51
2023-02-06T02:17:22.988Z,-2.48
2023-02-06T02:20:25.696Z,-2.40
2023-02-06T02:21:43.816Z,-2.47
2023-02-06T02:22:52.198Z,-2.51
2023-02-06T02:24:10.114Z,-2.48
2023-02-06T02:25:32.724Z,-2.62
2023-02-06T02:26:58.488Z,-2.71
2023-02-06T02:28:21.785Z,-2.76
2023-02-06T02:29:46.600Z,-2.81
2023-02-06T02:31:11.157Z,-2.77
2023-02-06T02:32:35.276Z,-2.75
2023-02-06T02:33:53.509Z,-2.79
2023-02-06T02:35:16.115Z,-2.75
2023-02-06T02:36:37.770Z,-2.77
2023-02-06T02:37:50.431Z,-2.74
2023-02-06T02:39:20.720Z,-2.75
2023-02-06T02:40:29.911Z,-2.85
2023-02-06T02:41:52.291Z,-2.87
2023-02-06T02:42:59.059Z,-2.95
2023-02-06T02:44:11.473Z,-3.01
2023-02-06T02:45:24.806Z,-2.94
2023-02-06T02:48:06.770Z,-2.74
2023-02-06T02:49:13.475Z,-2.81
2023-02-06T02:50:18.074Z,-2.77
2023-02-06T02:51:21.832Z,-2.82
2023-02-06T02:52:24.108Z,-2.76
2023-02-06T02:53:27.131Z,-2.69
2023-02-06T02:54:29.785Z,-2.76
2023-02-06T02:55:32.104Z,-2.76
2023-02-06T02:56:36.953Z,-2.73
2023-02-06T02:57:40.762Z,-2.73
2023-02-06T02:58:45.709Z,-2.70
2023-02-06T02:59:50.255Z,-2.75
2023-02-06T03:00:59.247Z,-2.75
2023-02-06T03:02:08.074Z,-2.78
2023-02-06T03:03:13.211Z,-2.73
2023-02-06T03:04:19.111Z,-2.71
2023-02-06T03:05:24.545Z,-2.68
2023-02-06T03:06:55.409Z,-2.59
2023-02-06T03:08:13.811Z,-2.55
2023-02-06T03:09:19.931Z,-2.38
2023-02-06T03:10:35.476Z,-2.23
2023-02-06T03:11:41.291Z,-2.21
2023-02-06T03:12:56.617Z,-2.35
2023-02-06T03:14:05.723Z,-2.42
2023-02-06T03:15:11.671Z,-2.43
2023-02-06T03:16:18.090Z,-2.45
2023-02-06T03:18:45.806Z,-2.43
2023-02-06T03:19:52.141Z,-2.50
2023-02-06T03:20:59.557Z,-2.45
2023-02-06T03:22:03.555Z,-2.43
2023-02-06T03:23:07.615Z,-2.43
2023-02-06T03:24:16.573Z,-2.44
2023-02-06T03:25:23.436Z,-2.43
2023-02-06T03:26:27.810Z,-2.44
2023-02-06T03:27:32.199Z,-2.45
2023-02-06T03:28:37.735Z,-2.43
2023-02-06T03:29:42.579Z,-2.36
2023-02-06T03:30:49.000Z,-2.29
2023-02-06T03:31:57.766Z,-2.28
2023-02-06T03:33:03.826Z,-2.30
2023-02-06T03:34:24.843Z,-2.26
2023-02-06T03:35:31.245Z,-2.29
2023-02-06T03:36:34.075Z,-2.29
2023-02-06T03:37:37.682Z,-2.21
2023-02-06T03:38:39.959Z,-2.17
2023-02-06T03:39:42.960Z,-2.17
2023-02-06T03:40:48.267Z,-2.27
2023-02-06T03:41:53.332Z,-2.25
2023-02-06T03:42:58.551Z,-2.22
2023-02-06T03:44:04.565Z,-2.24
2023-02-06T03:45:25.836Z,-2.34
2023-02-06T03:46:29.982Z,-2.29
2023-02-06T03:47:36.406Z,-2.33
2023-02-06T03:48:45.271Z,-2.40
2023-02-06T03:49:50.432Z,-2.38
2023-02-06T03:50:55.580Z,-2.41
2023-02-06T03:52:04.800Z,-2.42
2023-02-06T03:53:09.388Z,-2.39
2023-02-06T03:54:15.090Z,-2.35
2023-02-06T03:55:23.342Z,-2.25
2023-02-06T03:56:29.583Z,-2.25
2023-02-06T03:57:33.843Z,-2.32
2023-02-06T03:58:36.091Z,-2.36
2023-02-06T03:59:38.744Z,-2.31
2023-02-06T04:00:44.552Z,-2.29
2023-02-06T04:01:50.672Z,-2.29
2023-02-06T04:02:54.942Z,-2.32
2023-02-06T04:03:57.773Z,-2.30
2023-02-06T04:05:00.091Z,-2.25
2023-02-06T04:06:02.831Z,-2.20
2023-02-06T04:07:08.650Z,-2.15
2023-02-06T04:08:11.219Z,-2.16
2023-02-06T04:09:13.238Z,-2.24
2023-02-06T04:10:16.029Z,-2.24
2023-02-06T04:11:18.409Z,-2.32
2023-02-06T04:12:21.452Z,-2.32
2023-02-06T04:13:23.875Z,-2.29
2023-02-06T04:14:26.079Z,-2.26
2023-02-06T04:15:28.582Z,-2.28
2023-02-06T04:16:30.931Z,-2.25
2023-02-06T04:17:49.850Z,-2.26
2023-02-06T04:18:37.744Z,-2.23
2023-02-06T04:19:40.273Z,-2.30
2023-02-06T04:20:42.503Z,-2.42
2023-02-06T04:21:44.843Z,-2.39
2023-02-06T04:22:46.964Z,-2.37
2023-02-06T04:23:49.117Z,-2.34
2023-02-06T04:24:51.357Z,-2.33
2023-02-06T04:25:54.161Z,-2.31
2023-02-06T04:26:56.644Z,-2.47
2023-02-06T04:27:58.842Z,-2.41
2023-02-06T04:29:01.063Z,-2.35
2023-02-06T04:30:05.684Z,-2.47
2023-02-06T04:31:07.798Z,-2.37
2023-02-06T04:32:10.279Z,-2.37
2023-02-06T04:33:12.386Z,-2.30
2023-02-06T04:34:14.504Z,-2.26
2023-02-06T04:35:17.890Z,-2.33
2023-02-06T04:36:20.336Z,-2.30
2023-02-06T04:37:22.671Z,-2.27
2023-02-06T04:38:24.614Z,-2.21
2023-02-06T04:39:27.058Z,-2.19
2023-02-06T04:40:29.739Z,-2.19
2023-02-06T04:41:32.653Z,-2.19
2023-02-06T04:42:34.979Z,-2.22
2023-02-06T04:43:37.308Z,-2.28
2023-02-06T04:44:39.535Z,-2.21
2023-02-06T04:45:42.117Z,-2.16
2023-02-06T04:46:45.581Z,-2.15
2023-02-06T04:47:49.692Z,-2.13
2023-02-06T04:48:52.167Z,-2.14
2023-02-06T04:49:54.204Z,-2.17
2023-02-06T04:50:56.898Z,-2.13
2023-02-06T04:51:59.401Z,-2.21
2023-02-06T04:53:01.498Z,-2.24
2023-02-06T04:54:04.603Z,-2.22
2023-02-06T04:55:08.152Z,-2.20
2023-02-06T04:56:12.268Z,-2.25
2023-02-06T04:57:14.333Z,-2.27
2023-02-06T04:58:16.756Z,-2.30
2023-02-06T04:59:19.002Z,-2.31
2023-02-06T05:00:21.430Z,-2.36
2023-02-06T05:01:24.526Z,-2.35
2023-02-06T05:02:26.790Z,-2.32
2023-02-06T05:03:30.249Z,-2.33
2023-02-06T05:04:32.560Z,-2.45
2023-02-06T05:05:35.242Z,-2.43
2023-02-06T05:06:37.866Z,-2.44
2023-02-06T05:07:39.952Z,-2.54
2023-02-06T05:08:42.692Z,-2.54
2023-02-06T05:09:45.568Z,-2.48
2023-02-06T05:10:48.359Z,-2.48
2023-02-06T05:11:50.548Z,-2.55
2023-02-06T05:12:53.208Z,-2.47
2023-02-06T05:13:55.396Z,-2.46
2023-02-06T05:14:57.694Z,-2.63
2023-02-06T05:17:19.378Z,-2.37
2023-02-06T05:18:21.396Z,-2.51
2023-02-06T05:19:23.560Z,-2.45
2023-02-06T05:20:25.991Z,-2.43
2023-02-06T05:21:29.039Z,-2.49
2023-02-06T05:22:30.966Z,-2.51
2023-02-06T05:23:34.666Z,-2.46
2023-02-06T05:24:36.744Z,-2.44
2023-02-06T05:25:42.122Z,-2.49
2023-02-06T05:26:45.832Z,-2.54
2023-02-06T05:27:48.517Z,-2.59
2023-02-06T05:28:50.777Z,-2.58
2023-02-06T05:29:53.761Z,-2.54
2023-02-06T05:30:56.672Z,-2.45
2023-02-06T05:31:59.442Z,-2.45
2023-02-06T05:33:01.791Z,-2.66
2023-02-06T05:34:03.958Z,-2.59
2023-02-06T05:35:07.063Z,-2.56
2023-02-06T05:36:09.948Z,-2.46
2023-02-06T05:37:12.251Z,-2.46
2023-02-06T05:38:15.550Z,-2.44
2023-02-06T05:39:17.905Z,-2.50
2023-02-06T05:40:20.473Z,-2.49
2023-02-06T05:41:22.406Z,-2.49
2023-02-06T05:42:24.721Z,-2.50
2023-02-06T05:43:26.948Z,-2.50
2023-02-06T05:44:29.067Z,-2.46
2023-02-06T05:45:31.197Z,-2.46
2023-02-06T05:46:33.594Z,-2.54
2023-02-06T05:47:35.857Z,-2.57
2023-02-06T05:48:39.651Z,-2.50
2023-02-06T05:50:57.193Z,-2.46
2023-02-06T05:52:00.427Z,-2.51
2023-02-06T05:53:02.634Z,-2.55
2023-02-06T05:54:05.271Z,-2.55
2023-02-06T05:55:08.685Z,-2.49
2023-02-06T05:56:11.775Z,-2.47
2023-02-06T05:57:14.118Z,-2.44
2023-02-06T05:58:17.259Z,-2.44
2023-02-06T05:59:20.689Z,-2.43
2023-02-06T06:00:23.234Z,-2.45
2023-02-06T06:01:25.986Z,-2.50
2023-02-06T06:02:29.193Z,-2.48
2023-02-06T06:03:33.418Z,-2.50
2023-02-06T06:04:35.717Z,-2.52
2023-02-06T06:05:38.284Z,-2.46
2023-02-06T06:06:41.188Z,-2.45
2023-02-06T06:07:43.653Z,-2.46
2023-02-06T06:08:45.950Z,-2.43
2023-02-06T06:09:49.725Z,-2.45
2023-02-06T06:10:52.449Z,-2.44
2023-02-06T06:11:55.582Z,-2.45
2023-02-06T06:12:58.452Z,-2.41
2023-02-06T06:14:00.649Z,-2.41
2023-02-06T06:15:02.985Z,-2.36
2023-02-06T06:16:05.482Z,-2.38
2023-02-06T06:17:07.957Z,-2.31
2023-02-06T06:18:10.589Z,-2.26
2023-02-06T06:19:14.768Z,-2.26
2023-02-06T06:20:28.844Z,-2.26
2023-02-06T06:21:35.085Z,-2.24
2023-02-06T06:22:37.311Z,-2.25
2023-02-06T06:23:39.519Z,-2.25
2023-02-06T06:24:41.989Z,-2.34
2023-02-06T06:25:46.403Z,-2.35
2023-02-06T06:26:48.602Z,-2.29
2023-02-06T06:27:50.949Z,-2.36
2023-02-06T06:28:53.433Z,-2.51
2023-02-06T06:29:55.552Z,-2.56
2023-02-06T06:31:03.543Z,-2.62
2023-02-06T06:32:05.953Z,-2.48
2023-02-06T06:33:08.215Z,-2.51
2023-02-06T06:34:10.547Z,-2.48
2023-02-06T06:35:13.777Z,-2.38
2023-02-06T06:36:17.327Z,-2.35
2023-02-06T06:37:19.789Z,-2.36
2023-02-06T06:38:23.026Z,-2.36
2023-02-06T06:39:26.297Z,-2.32
2023-02-06T06:40:28.815Z,-2.23
2023-02-06T06:41:31.261Z,-2.19
2023-02-06T06:42:33.306Z,-2.15
2023-02-06T06:43:36.562Z,-2.13
2023-02-06T06:44:38.761Z,-2.09
2023-02-06T06:45:40.816Z,-1.97
2023-02-06T06:46:43.106Z,-1.93
2023-02-06T06:47:46.437Z,-1.95
2023-02-06T06:48:49.750Z,-1.98
2023-02-06T06:49:52.123Z,-1.90
2023-02-06T06:50:54.445Z,-2.02
2023-02-06T06:51:57.300Z,-2.06
2023-02-06T06:52:59.574Z,-2.14
2023-02-06T06:54:01.599Z,-2.16
2023-02-06T06:55:03.878Z,-2.21
2023-02-06T06:56:08.325Z,-2.11
2023-02-06T06:57:12.482Z,-1.99
2023-02-06T06:58:15.042Z,-2.03
2023-02-06T06:59:17.998Z,-2.03
2023-02-06T07:00:22.022Z,-1.97
2023-02-06T07:01:24.824Z,-1.96
2023-02-06T07:02:27.902Z,-2.00
2023-02-06T07:03:30.207Z,-2.00
2023-02-06T07:04:32.769Z,-1.93
2023-02-06T07:05:36.547Z,-1.87
2023-02-06T07:06:39.108Z,-1.89
2023-02-06T07:07:41.241Z,-1.90
2023-02-06T07:08:43.499Z,-2.10
2023-02-06T07:09:45.653Z,-2.03
2023-02-06T07:10:49.144Z,-2.00
2023-02-06T07:11:51.321Z,-1.98
2023-02-06T07:12:54.545Z,-2.04
2023-02-06T07:13:56.822Z,-1.91
2023-02-06T07:14:59.056Z,-1.90
2023-02-06T07:16:01.303Z,-1.90
2023-02-06T07:17:03.529Z,-1.94
2023-02-06T07:18:05.650Z,-1.89
2023-02-06T07:19:08.666Z,-1.87
2023-02-06T07:20:11.948Z,-1.86
2023-02-06T07:21:16.357Z,-1.88
2023-02-06T07:22:20.080Z,-1.81
2023-02-06T07:23:23.415Z,-1.72
2023-02-06T07:24:25.673Z,-1.66
2023-02-06T07:25:28.616Z,-1.70
2023-02-06T07:26:33.236Z,-1.72
2023-02-06T07:27:35.475Z,-1.88
2023-02-06T07:28:38.489Z,-1.82
2023-02-06T07:29:40.543Z,-1.74
2023-02-06T07:30:43.140Z,-1.73
2023-02-06T07:31:45.623Z,-1.79
2023-02-06T07:32:47.865Z,-1.74
2023-02-06T07:33:51.063Z,-1.70
2023-02-06T07:34:53.147Z,-1.69
2023-02-06T07:35:55.449Z,-1.69
2023-02-06T07:37:00.406Z,-1.68
2023-02-06T07:38:02.594Z,-1.61
2023-02-06T07:39:04.734Z,-1.59
2023-02-06T07:40:09.053Z,-1.70
2023-02-06T07:41:12.752Z,-1.68
2023-02-06T07:42:15.093Z,-1.61
2023-02-06T07:43:19.750Z,-1.66
2023-02-06T07:44:21.875Z,-1.79
2023-02-06T07:45:25.947Z,-1.78
2023-02-06T07:46:29.351Z,-1.84
2023-02-06T07:47:31.586Z,-1.74
2023-02-06T07:48:33.718Z,-1.61
2023-02-06T07:49:37.176Z,-1.51
2023-02-06T07:50:39.869Z,-1.42
2023-02-06T07:51:43.866Z,-1.37
2023-02-06T07:52:46.914Z,-1.32
2023-02-06T07:53:50.795Z,-1.39
2023-02-06T07:54:53.960Z,-1.41
2023-02-06T07:55:56.257Z,-1.39
2023-02-06T07:56:58.721Z,-1.38
2023-02-06T07:58:00.731Z,-1.28
2023-02-06T07:59:03.424Z,-1.29
2023-02-06T08:00:07.387Z,-1.29
2023-02-06T08:01:11.552Z,-1.50
2023-02-06T08:02:14.888Z,-1.39
2023-02-06T08:03:17.445Z,-1.24
2023-02-06T08:04:19.818Z,-1.42
2023-02-06T08:05:22.330Z,-1.38
2023-02-06T08:06:25.709Z,-1.23
2023-02-06T08:07:29.958Z,-1.10
2023-02-06T08:08:32.302Z,-0.93
2023-02-06T08:09:34.346Z,-0.95
2023-02-06T08:10:39.322Z,-0.94
2023-02-06T08:11:42.157Z,-0.91
2023-02-06T08:12:44.523Z,-0.89
2023-02-06T08:13:48.437Z,-0.93
2023-02-06T08:14:51.434Z,-0.87
2023-02-06T08:15:53.713Z,-0.94
2023-02-06T08:16:56.629Z,-0.91
2023-02-06T08:17:59.012Z,-1.03
2023-02-06T08:19:02.073Z,-0.96
2023-02-06T08:20:05.201Z,-0.79
2023-02-06T08:21:10.953Z,-0.57
2023-02-06T08:22:13.368Z,-0.62
2023-02-06T08:23:15.603Z,-0.61
2023-02-06T08:24:17.994Z,-0.34
2023-02-06T08:25:20.618Z,-0.60
2023-02-06T08:26:24.478Z,-0.64
2023-02-06T08:27:26.814Z,-0.66
2023-02-06T08:28:29.337Z,-0.62
2023-02-06T08:29:32.155Z,-0.67
2023-02-06T08:30:36.302Z,-0.71
2023-02-06T08:31:40.740Z,-0.68
2023-02-06T08:32:43.447Z,-0.60
2023-02-06T08:33:46.767Z,-0.65
2023-02-06T08:34:48.894Z,-0.49
2023-02-06T08:35:51.135Z,-0.44
2023-02-06T08:36:53.378Z,-0.69
2023-02-06T08:37:55.959Z,-0.59
2023-02-06T08:38:59.394Z,-0.54
2023-02-06T08:40:01.813Z,-0.59
2023-02-06T08:41:05.390Z,-0.31
2023-02-06T08:42:07.694Z,-0.34
2023-02-06T08:43:10.317Z,-0.30
2023-02-06T08:44:15.605Z,-0.49
2023-02-06T08:45:17.971Z,-0.55
2023-02-06T08:46:22.940Z,-0.50
2023-02-06T08:47:25.359Z,-0.39
2023-02-06T08:48:27.707Z,-0.40
2023-02-06T08:49:30.313Z,-0.36
2023-02-06T08:50:32.579Z,-0.54
2023-02-06T08:51:36.745Z,-0.75
2023-02-06T08:52:39.750Z,-0.72
2023-02-06T08:53:42.141Z,-0.90
2023-02-06T08:54:44.446Z,-0.87
2023-02-06T08:55:46.970Z,-0.78
2023-02-06T08:56:51.188Z,-0.46
2023-02-06T08:57:53.779Z,-0.38
2023-02-06T08:59:02.512Z,-0.47
2023-02-06T09:00:06.180Z,-0.49
2023-02-06T09:01:13.094Z,-0.49
2023-02-06T09:02:15.220Z,-0.50
2023-02-06T09:03:17.996Z,-0.52
2023-02-06T09:04:21.552Z,-0.49
2023-02-06T09:05:23.941Z,-0.57
2023-02-06T09:06:27.741Z,-0.57
2023-02-06T09:07:31.409Z,-0.41
2023-02-06T09:08:33.716Z,-0.35
2023-02-06T09:09:36.351Z,-0.37
2023-02-06T09:10:38.715Z,-0.38
2023-02-06T09:11:42.162Z,-0.63
2023-02-06T09:12:44.312Z,-0.58
2023-02-06T09:13:49.246Z,-0.61
2023-02-06T09:14:51.579Z,-0.54
2023-02-06T09:15:54.532Z,-0.28
2023-02-06T09:16:58.221Z,-0.62
2023-02-06T09:18:01.583Z,-0.73
2023-02-06T09:19:04.944Z,-0.85
2023-02-06T09:20:09.143Z,-0.76
2023-02-06T09:21:14.563Z,-0.65
2023-02-06T09:22:17.145Z,-0.66
2023-02-06T09:23:19.597Z,-0.67
2023-02-06T09:24:21.805Z,-0.66
2023-02-06T09:25:24.022Z,-0.61
2023-02-06T09:26:29.699Z,-0.54
2023-02-06T09:27:32.934Z,-0.63
2023-02-06T09:28:34.885Z,-0.76
2023-02-06T09:29:36.999Z,-0.70
2023-02-06T09:30:39.277Z,-0.61
2023-02-06T09:31:42.717Z,-0.66
2023-02-06T09:32:45.121Z,-0.69
2023-02-06T09:33:47.237Z,-0.82
2023-02-06T09:34:49.690Z,-0.93
2023-02-06T09:36:06.209Z,-0.91
2023-02-06T09:37:08.368Z,-0.88
2023-02-06T09:38:10.420Z,-0.88
2023-02-06T09:39:12.996Z,-0.81
2023-02-06T09:40:18.946Z,-0.79
2023-02-06T09:41:27.981Z,-0.98
2023-02-06T09:42:39.661Z,-1.01
2023-02-06T09:43:45.954Z,-1.01
2023-02-06T09:45:06.944Z,-1.06
2023-02-06T09:46:14.717Z,-1.08
2023-02-06T09:47:26.721Z,-1.19
2023-02-06T09:48:32.286Z,-1.21
2023-02-06T09:49:49.631Z,-1.45
2023-02-06T09:50:58.697Z,-1.47
2023-02-06T09:52:07.787Z,-1.27
2023-02-06T09:53:42.712Z,-1.09
2023-02-06T09:54:51.973Z,-1.04
2023-02-06T09:56:17.211Z,-1.03
2023-02-06T09:57:44.471Z,-1.04
2023-02-06T09:59:11.280Z,-0.95
2023-02-06T10:00:32.789Z,-1.00
2023-02-06T10:01:50.803Z,-0.97
2023-02-06T10:03:07.135Z,-0.96
2023-02-06T10:04:29.017Z,-0.98
2023-02-06T10:05:40.811Z,-0.95
2023-02-06T10:06:49.953Z,-1.04
2023-02-06T10:08:23.547Z,-1.22
2023-02-06T10:09:32.346Z,-1.16
2023-02-06T10:10:46.906Z,-1.11
2023-02-06T10:12:01.528Z,-1.20
2023-02-06T10:13:24.131Z,-1.19
2023-02-06T10:14:41.889Z,-1.22
2023-02-06T10:15:47.720Z,-1.13
2023-02-06T10:16:54.240Z,-1.18
2023-02-06T10:18:01.203Z,-1.31
2023-02-06T10:19:25.239Z,-1.19
2023-02-06T10:20:54.357Z,-1.13
2023-02-06T10:22:02.979Z,-1.06
2023-02-06T10:23:30.320Z,-1.08
2023-02-06T10:24:36.755Z,-1.15
2023-02-06T10:25:45.638Z,-1.21
2023-02-06T10:26:51.737Z,-1.43
2023-02-06T10:28:01.541Z,-1.37
2023-02-06T10:29:06.596Z,-1.22
2023-02-06T10:30:20.279Z,-1.15
2023-02-06T10:31:29.143Z,-1.27
2023-02-06T10:32:49.963Z,-1.52
2023-02-06T10:34:24.434Z,-1.69
2023-02-06T10:35:33.098Z,-1.56
2023-02-06T10:37:00.592Z,-1.58
2023-02-06T10:38:26.315Z,-1.26
2023-02-06T10:39:53.317Z,-0.88
2023-02-06T10:42:22.912Z,-0.82
2023-02-06T10:43:48.667Z,-0.96
2023-02-06T10:45:21.145Z,-0.95
2023-02-06T10:46:36.250Z,-1.02
2023-02-06T10:47:54.602Z,-1.04
2023-02-06T10:49:06.278Z,-1.14
2023-02-06T10:50:21.826Z,-1.20
2023-02-06T10:51:34.297Z,-1.15
2023-02-06T10:52:38.635Z,-1.15
2023-02-06T10:53:50.418Z,-1.14
2023-02-06T10:54:58.907Z,-1.09
2023-02-06T10:56:11.049Z,-0.98
2023-02-06T10:57:19.997Z,-1.04
2023-02-06T10:58:25.805Z,-1.07
2023-02-06T10:59:39.702Z,-1.00
2023-02-06T11:00:45.875Z,-1.00
2023-02-06T11:01:51.074Z,-0.98
2023-02-06T11:03:07.206Z,-0.92
2023-02-06T11:04:12.702Z,-0.83
2023-02-06T11:05:22.237Z,-0.74
2023-02-06T11:06:28.759Z,-0.74
2023-02-06T11:07:34.654Z,-0.74
2023-02-06T11:08:41.641Z,-0.71
2023-02-06T11:09:44.494Z,-0.72
2023-02-06T11:10:47.394Z,-0.72
2023-02-06T11:11:53.710Z,-0.74
2023-02-06T11:13:08.516Z,-0.72
2023-02-06T11:14:27.729Z,-0.67
2023-02-06T11:15:39.530Z,-0.63
2023-02-06T11:16:44.141Z,-0.53
2023-02-06T11:17:46.803Z,-0.53
2023-02-06T11:18:50.590Z,-0.55
2023-02-06T11:19:54.822Z,-0.79
2023-02-06T11:20:57.910Z,-0.93
2023-02-06T11:22:16.780Z,-1.03
2023-02-06T11:23:23.416Z,-1.07
2023-02-06T11:24:25.877Z,-1.04
2023-02-06T11:25:33.013Z,-1.03
2023-02-06T11:26:41.278Z,-1.00
2023-02-06T11:27:44.477Z,-1.01
2023-02-06T11:28:59.124Z,-0.94
2023-02-06T11:30:04.994Z,-1.00
2023-02-06T11:31:09.251Z,-1.13
2023-02-06T11:32:37.674Z,-1.09
2023-02-06T11:33:46.877Z,-1.17
2023-02-06T11:34:59.103Z,-0.98
2023-02-06T11:36:04.476Z,-1.11
2023-02-06T11:37:27.080Z,-1.20
2023-02-06T11:38:30.952Z,-1.25
2023-02-06T11:39:39.007Z,-1.37
2023-02-06T11:40:43.284Z,-1.03
2023-02-06T11:42:04.142Z,-1.23
2023-02-06T11:43:20.824Z,-1.22
2023-02-06T11:44:29.009Z,-1.33
2023-02-06T11:45:33.432Z,-1.21
2023-02-06T11:46:38.246Z,-1.22
2023-02-06T11:47:40.372Z,-1.43
2023-02-06T11:48:47.163Z,-1.34
2023-02-06T11:49:49.451Z,-1.29
2023-02-06T11:50:54.250Z,-1.35
2023-02-06T11:51:59.282Z,-1.38
2023-02-06T11:53:11.339Z,-1.39
2023-02-06T11:54:19.559Z,-1.42
2023-02-06T11:55:24.812Z,-1.47
2023-02-06T11:56:29.521Z,-1.57
2023-02-06T11:57:33.799Z,-1.68
2023-02-06T11:58:36.045Z,-1.84
2023-02-06T11:59:41.799Z,-2.00
2023-02-06T12:00:56.907Z,-2.07
2023-02-06T12:02:00.924Z,-2.00
2023-02-06T12:03:07.031Z,-1.87
2023-02-06T12:04:21.223Z,-1.74
2023-02-06T12:05:27.541Z,-1.68
2023-02-06T12:06:35.916Z,-1.51
2023-02-06T12:07:44.620Z,-1.41
2023-02-06T12:08:52.861Z,-1.31
2023-02-06T12:09:55.808Z,-1.23
2023-02-06T12:11:03.780Z,-1.62
2023-02-06T12:12:18.338Z,-1.80
2023-02-06T12:13:25.422Z,-1.60
2023-02-06T12:14:41.177Z,-1.43
2023-02-06T12:15:48.271Z,-1.45
2023-02-06T12:16:53.329Z,-1.34
2023-02-06T12:17:59.721Z,-1.35
2023-02-06T12:19:06.055Z,-1.28
2023-02-06T12:20:26.756Z,-1.33
2023-02-06T12:21:49.823Z,-1.23
2023-02-06T12:23:06.305Z,-1.18
2023-02-06T12:24:28.095Z,-1.09
2023-02-06T12:25:36.858Z,-1.38
2023-02-06T12:26:40.611Z,-1.85
2023-02-06T12:27:44.562Z,-1.67
2023-02-06T12:28:54.516Z,-1.55
2023-02-06T12:30:17.322Z,-1.44
2023-02-06T12:31:23.606Z,-1.56
2023-02-06T12:32:39.632Z,-1.62
2023-02-06T12:33:55.251Z,-1.62
2023-02-06T12:35:03.182Z,-1.48
2023-02-06T12:36:14.245Z,-1.45
2023-02-06T12:37:29.931Z,-1.38
2023-02-06T12:38:41.477Z,-1.34
2023-02-06T12:39:44.979Z,-1.36
2023-02-06T12:41:14.126Z,-1.35
2023-02-06T12:42:46.188Z,-1.36
2023-02-06T12:43:52.124Z,-1.28
2023-02-06T12:45:16.589Z,-1.42
2023-02-06T12:46:22.810Z,-1.35
2023-02-06T12:47:40.453Z,-1.56
2023-02-06T12:48:49.314Z,-1.62
2023-02-06T12:49:58.221Z,-1.48
2023-02-06T12:51:09.862Z,-1.34
2023-02-06T12:52:40.072Z,-1.40
2023-02-06T12:53:45.795Z,-1.45
2023-02-06T12:54:55.286Z,-1.71
2023-02-06T12:56:04.212Z,-1.80
2023-02-06T12:57:16.044Z,-1.64
2023-02-06T12:58:31.378Z,-1.57
2023-02-06T12:59:57.592Z,-1.63
2023-02-06T13:01:29.200Z,-1.50
2023-02-06T13:02:46.652Z,-1.39
2023-02-06T13:05:29.513Z,-1.40
2023-02-06T13:06:47.955Z,-1.51
2023-02-06T13:07:52.635Z,-1.45
2023-02-06T13:08:58.624Z,-1.46
2023-02-06T13:10:05.255Z,-1.56
2023-02-06T13:11:28.631Z,-1.47
2023-02-06T13:12:32.211Z,-1.41
2023-02-06T13:13:41.643Z,-1.25
2023-02-06T13:14:48.444Z,-1.13
2023-02-06T13:15:56.359Z,-1.06
2023-02-06T13:17:09.861Z,-1.01
2023-02-06T13:18:46.491Z,-1.03
2023-02-06T13:19:53.382Z,-1.00
2023-02-06T13:21:15.526Z,-1.06
2023-02-06T13:22:25.045Z,-1.01
2023-02-06T13:23:27.285Z,-1.51
2023-02-06T13:24:29.268Z,-1.53
2023-02-06T13:25:38.812Z,-1.46
2023-02-06T13:26:55.752Z,-1.54
2023-02-06T13:28:22.054Z,-1.41
2023-02-06T13:29:27.154Z,-1.38
2023-02-06T13:30:33.230Z,-1.30
2023-02-06T13:31:37.920Z,-1.63
2023-02-06T13:32:45.440Z,-1.68
2023-02-06T13:33:54.722Z,-1.62
2023-02-06T13:35:12.744Z,-1.62
2023-02-06T13:36:39.039Z,-1.65
2023-02-06T13:37:46.289Z,-1.82
2023-02-06T13:38:55.574Z,-1.56
2023-02-06T13:40:21.280Z,-1.57
2023-02-06T13:41:28.805Z,-1.29
2023-02-06T13:42:40.289Z,-1.18
2023-02-06T13:43:58.031Z,-1.13
2023-02-06T13:45:04.386Z,-1.13
2023-02-06T13:46:14.484Z,-1.12
2023-02-06T13:47:23.157Z,-1.18
2023-02-06T13:48:49.395Z,-1.18
2023-02-06T13:50:08.418Z,-0.93
2023-02-06T13:51:47.922Z,-0.93
2023-02-06T13:53:00.881Z,-0.91
2023-02-06T13:54:25.246Z,-1.32
2023-02-06T13:55:50.835Z,-1.39
2023-02-06T13:57:15.895Z,-1.47
2023-02-06T13:58:34.294Z,-1.50
2023-02-06T14:00:01.192Z,-1.70
2023-02-06T14:01:06.946Z,-1.63
2023-02-06T14:02:20.915Z,-1.88
2023-02-06T14:03:32.583Z,-2.05
2023-02-06T14:04:35.884Z,-2.06
2023-02-06T14:05:58.230Z,-1.95
2023-02-06T14:07:31.062Z,-1.93
2023-02-06T14:08:40.068Z,-2.01
2023-02-06T14:10:23.286Z,-2.04
2023-02-06T14:11:35.260Z,-2.12
2023-02-06T14:12:47.855Z,-1.97
2023-02-06T14:14:28.898Z,-1.84
2023-02-06T14:15:53.308Z,-1.78
2023-02-06T14:17:24.195Z,-2.07
2023-02-06T14:18:32.970Z,-2.06
2023-02-06T14:20:00.009Z,-1.99
2023-02-06T14:21:12.079Z,-2.16
2023-02-06T14:22:34.328Z,-2.22
2023-02-06T14:24:06.451Z,-2.42
2023-02-06T14:25:48.281Z,-2.52
2023-02-06T14:27:17.282Z,-2.40
2023-02-06T14:28:26.146Z,-2.28
2023-02-06T14:29:44.036Z,-2.34
2023-02-06T14:31:19.086Z,-2.55
2023-02-06T14:32:45.187Z,-2.55
2023-02-06T14:34:13.778Z,-2.47
2023-02-06T14:35:43.897Z,-2.37
2023-02-06T14:36:49.843Z,-2.29